Weather at Valley International Airport

Public forecast

Using degrees Fahrenheit for public forecast. Weather courtesy of forecast.io.

Current aviation weather report (METAR) for Valley International Airport

Retrieved 2021/03/08 12:52 UTC (1 hour ago):

KHRL 081252Z 08005KT 10SM SCT046 BKN060 OVC090 16/14 A3032 RMK AO2 SLP267 T01560144

Aviation forecast (TAF) for Valley International Airport

Retrieved 2021/03/08 12:24 UTC (2 hours ago):

TAF KHRL 081121Z 0812/0912 VRB03KT P6SM SCT040 OVC080 FM081400 09007KT P6SM SCT040 BKN080 FM081800 12013KT P6SM SCT040 BKN070 FM090300 12006KT P6SM SCT050 BKN080 FM090700 12005KT P6SM BKN025 OVC070